sensor_id;sensor_type;location;lat;lon;timestamp;P1;durP1;ratioP1;P2;durP2;ratioP2
72493;SDS011;60520;49.182;-0.348;2024-02-23T00:00:31;2.72;;;0.90;;
72493;SDS011;60520;49.182;-0.348;2024-02-23T00:02:58;2.13;;;1.00;;
72493;SDS011;60520;49.182;-0.348;2024-02-23T00:05:25;2.95;;;1.02;;
72493;SDS011;60520;49.182;-0.348;2024-02-23T00:07:52;3.97;;;0.90;;
72493;SDS011;60520;49.182;-0.348;2024-02-23T00:10:20;2.35;;;1.10;;
72493;SDS011;60520;49.182;-0.348;2024-02-23T00:12:47;2.13;;;0.90;;
72493;SDS011;60520;49.182;-0.348;2024-02-23T00:15:14;2.05;;;0.90;;
72493;SDS011;60520;49.182;-0.348;2024-02-23T00:17:42;2.13;;;0.95;;
72493;SDS011;60520;49.182;-0.348;2024-02-23T00:20:10;2.47;;;0.90;;
72493;SDS011;60520;49.182;-0.348;2024-02-23T00:22:37;4.00;;;1.10;;
72493;SDS011;60520;49.182;-0.348;2024-02-23T00:25:05;3.20;;;1.30;;
72493;SDS011;60520;49.182;-0.348;2024-02-23T00:27:32;2.65;;;0.98;;
72493;SDS011;60520;49.182;-0.348;2024-02-23T00:29:59;2.00;;;0.80;;
72493;SDS011;60520;49.182;-0.348;2024-02-23T00:32:27;2.60;;;0.90;;
72493;SDS011;60520;49.182;-0.348;2024-02-23T00:34:56;2.40;;;1.10;;
72493;SDS011;60520;49.182;-0.348;2024-02-23T00:37:23;1.23;;;0.75;;
72493;SDS011;60520;49.182;-0.348;2024-02-23T00:39:51;1.98;;;0.88;;
72493;SDS011;60520;49.182;-0.348;2024-02-23T00:42:18;2.42;;;0.90;;
72493;SDS011;60520;49.182;-0.348;2024-02-23T00:44:46;3.53;;;1.00;;
72493;SDS011;60520;49.182;-0.348;2024-02-23T00:47:13;2.40;;;0.88;;
72493;SDS011;60520;49.182;-0.348;2024-02-23T00:49:40;2.40;;;0.93;;
72493;SDS011;60520;49.182;-0.348;2024-02-23T00:52:08;3.28;;;1.17;;
72493;SDS011;60520;49.182;-0.348;2024-02-23T00:54:35;2.22;;;0.95;;
72493;SDS011;60520;49.182;-0.348;2024-02-23T00:57:03;1.80;;;0.95;;
72493;SDS011;60520;49.182;-0.348;2024-02-23T00:59:30;1.88;;;0.85;;
72493;SDS011;60520;49.182;-0.348;2024-02-23T01:01:57;3.08;;;1.08;;
72493;SDS011;60520;49.182;-0.348;2024-02-23T01:04:24;2.85;;;0.82;;
72493;SDS011;60520;49.182;-0.348;2024-02-23T01:06:52;1.65;;;0.80;;
72493;SDS011;60520;49.182;-0.348;2024-02-23T01:09:20;1.92;;;0.82;;
72493;SDS011;60520;49.182;-0.348;2024-02-23T01:11:47;1.95;;;0.98;;
72493;SDS011;60520;49.182;-0.348;2024-02-23T01:14:14;2.38;;;0.90;;
72493;SDS011;60520;49.182;-0.348;2024-02-23T01:16:42;1.70;;;0.63;;
72493;SDS011;60520;49.182;-0.348;2024-02-23T01:19:09;1.88;;;0.77;;
72493;SDS011;60520;49.182;-0.348;2024-02-23T01:21:36;1.50;;;0.90;;
72493;SDS011;60520;49.182;-0.348;2024-02-23T01:24:03;2.25;;;0.88;;
72493;SDS011;60520;49.182;-0.348;2024-02-23T01:26:32;3.05;;;1.00;;
72493;SDS011;60520;49.182;-0.348;2024-02-23T01:28:59;2.90;;;0.98;;
72493;SDS011;60520;49.182;-0.348;2024-02-23T01:31:26;1.15;;;0.60;;
72493;SDS011;60520;49.182;-0.348;2024-02-23T01:33:53;2.50;;;0.90;;
72493;SDS011;60520;49.182;-0.348;2024-02-23T01:36:20;3.03;;;0.77;;
72493;SDS011;60520;49.182;-0.348;2024-02-23T01:38:47;1.58;;;0.80;;
72493;SDS011;60520;49.182;-0.348;2024-02-23T01:41:15;3.10;;;0.93;;
72493;SDS011;60520;49.182;-0.348;2024-02-23T01:43:43;2.00;;;0.90;;
72493;SDS011;60520;49.182;-0.348;2024-02-23T01:46:10;1.77;;;0.80;;
72493;SDS011;60520;49.182;-0.348;2024-02-23T01:48:37;2.90;;;0.90;;
72493;SDS011;60520;49.182;-0.348;2024-02-23T01:51:04;3.35;;;1.23;;
72493;SDS011;60520;49.182;-0.348;2024-02-23T01:53:32;3.08;;;0.70;;
72493;SDS011;60520;49.182;-0.348;2024-02-23T01:55:59;2.00;;;0.80;;
72493;SDS011;60520;49.182;-0.348;2024-02-23T01:58:27;3.78;;;1.00;;
72493;SDS011;60520;49.182;-0.348;2024-02-23T02:00:56;2.85;;;0.85;;
72493;SDS011;60520;49.182;-0.348;2024-02-23T02:03:23;2.13;;;0.88;;
72493;SDS011;60520;49.182;-0.348;2024-02-23T02:05:50;3.33;;;1.10;;
72493;SDS011;60520;49.182;-0.348;2024-02-23T02:08:18;1.73;;;0.75;;
72493;SDS011;60520;49.182;-0.348;2024-02-23T02:10:46;1.17;;;0.70;;
72493;SDS011;60520;49.182;-0.348;2024-02-23T02:13:14;2.22;;;0.80;;
72493;SDS011;60520;49.182;-0.348;2024-02-23T02:15:41;2.97;;;1.02;;
72493;SDS011;60520;49.182;-0.348;2024-02-23T02:18:10;2.55;;;1.08;;
72493;SDS011;60520;49.182;-0.348;2024-02-23T02:20:37;2.40;;;0.80;;
72493;SDS011;60520;49.182;-0.348;2024-02-23T02:23:07;1.80;;;0.80;;
72493;SDS011;60520;49.182;-0.348;2024-02-23T02:25:36;2.20;;;0.80;;
72493;SDS011;60520;49.182;-0.348;2024-02-23T02:28:05;2.10;;;0.90;;
72493;SDS011;60520;49.182;-0.348;2024-02-23T02:30:33;1.88;;;0.90;;
72493;SDS011;60520;49.182;-0.348;2024-02-23T02:33:00;1.60;;;0.65;;
72493;SDS011;60520;49.182;-0.348;2024-02-23T02:35:29;2.90;;;1.02;;
72493;SDS011;60520;49.182;-0.348;2024-02-23T02:37:56;2.13;;;0.77;;
72493;SDS011;60520;49.182;-0.348;2024-02-23T02:40:23;2.05;;;0.95;;
72493;SDS011;60520;49.182;-0.348;2024-02-23T02:42:50;1.65;;;0.73;;
72493;SDS011;60520;49.182;-0.348;2024-02-23T02:45:17;1.85;;;0.80;;
72493;SDS011;60520;49.182;-0.348;2024-02-23T02:47:44;1.95;;;0.90;;
72493;SDS011;60520;49.182;-0.348;2024-02-23T02:50:13;5.50;;;0.88;;
72493;SDS011;60520;49.182;-0.348;2024-02-23T02:52:41;1.67;;;0.70;;
72493;SDS011;60520;49.182;-0.348;2024-02-23T02:55:09;3.30;;;0.90;;
72493;SDS011;60520;49.182;-0.348;2024-02-23T02:57:36;1.40;;;0.60;;
72493;SDS011;60520;49.182;-0.348;2024-02-23T03:00:03;2.65;;;0.88;;
72493;SDS011;60520;49.182;-0.348;2024-02-23T03:02:31;1.67;;;0.70;;
72493;SDS011;60520;49.182;-0.348;2024-02-23T03:04:58;4.20;;;0.98;;
72493;SDS011;60520;49.182;-0.348;2024-02-23T03:07:25;2.67;;;0.93;;
72493;SDS011;60520;49.182;-0.348;2024-02-23T03:09:53;1.90;;;0.77;;
72493;SDS011;60520;49.182;-0.348;2024-02-23T03:12:20;2.05;;;0.90;;
72493;SDS011;60520;49.182;-0.348;2024-02-23T03:14:48;1.67;;;0.75;;
72493;SDS011;60520;49.182;-0.348;2024-02-23T03:17:15;2.33;;;0.77;;
72493;SDS011;60520;49.182;-0.348;2024-02-23T03:19:42;2.40;;;0.80;;
72493;SDS011;60520;49.182;-0.348;2024-02-23T03:22:09;1.90;;;0.82;;
72493;SDS011;60520;49.182;-0.348;2024-02-23T03:24:36;2.17;;;0.75;;
72493;SDS011;60520;49.182;-0.348;2024-02-23T03:27:05;1.75;;;0.80;;
72493;SDS011;60520;49.182;-0.348;2024-02-23T03:29:32;1.77;;;0.73;;
72493;SDS011;60520;49.182;-0.348;2024-02-23T03:31:59;2.33;;;0.93;;
72493;SDS011;60520;49.182;-0.348;2024-02-23T03:34:27;3.13;;;0.65;;
72493;SDS011;60520;49.182;-0.348;2024-02-23T03:36:55;2.72;;;0.90;;
72493;SDS011;60520;49.182;-0.348;2024-02-23T03:39:23;1.73;;;0.80;;
72493;SDS011;60520;49.182;-0.348;2024-02-23T03:41:50;3.63;;;0.90;;
72493;SDS011;60520;49.182;-0.348;2024-02-23T03:44:19;3.00;;;1.15;;
72493;SDS011;60520;49.182;-0.348;2024-02-23T03:46:46;3.15;;;1.05;;
72493;SDS011;60520;49.182;-0.348;2024-02-23T03:49:13;2.95;;;0.80;;
72493;SDS011;60520;49.182;-0.348;2024-02-23T03:51:40;2.65;;;0.75;;
72493;SDS011;60520;49.182;-0.348;2024-02-23T03:54:07;2.92;;;0.88;;
72493;SDS011;60520;49.182;-0.348;2024-02-23T03:56:38;2.45;;;0.70;;
72493;SDS011;60520;49.182;-0.348;2024-02-23T03:59:06;3.08;;;0.70;;
72493;SDS011;60520;49.182;-0.348;2024-02-23T04:01:36;2.58;;;0.95;;
72493;SDS011;60520;49.182;-0.348;2024-02-23T04:04:03;1.83;;;0.77;;
72493;SDS011;60520;49.182;-0.348;2024-02-23T04:06:31;2.30;;;0.70;;
72493;SDS011;60520;49.182;-0.348;2024-02-23T04:08:58;2.80;;;0.98;;
72493;SDS011;60520;49.182;-0.348;2024-02-23T04:11:25;1.73;;;0.77;;
72493;SDS011;60520;49.182;-0.348;2024-02-23T04:13:52;3.10;;;1.00;;
72493;SDS011;60520;49.182;-0.348;2024-02-23T04:16:22;3.17;;;0.93;;
72493;SDS011;60520;49.182;-0.348;2024-02-23T04:18:51;3.13;;;0.80;;
72493;SDS011;60520;49.182;-0.348;2024-02-23T04:21:18;2.30;;;0.70;;
72493;SDS011;60520;49.182;-0.348;2024-02-23T04:23:45;1.52;;;0.75;;
72493;SDS011;60520;49.182;-0.348;2024-02-23T04:26:12;3.25;;;0.90;;
72493;SDS011;60520;49.182;-0.348;2024-02-23T04:28:40;3.00;;;0.90;;
72493;SDS011;60520;49.182;-0.348;2024-02-23T04:31:07;4.15;;;0.90;;
72493;SDS011;60520;49.182;-0.348;2024-02-23T04:33:35;3.53;;;0.95;;
72493;SDS011;60520;49.182;-0.348;2024-02-23T04:36:04;3.30;;;0.88;;
72493;SDS011;60520;49.182;-0.348;2024-02-23T04:38:31;2.10;;;0.70;;
72493;SDS011;60520;49.182;-0.348;2024-02-23T04:41:01;1.85;;;0.65;;
72493;SDS011;60520;49.182;-0.348;2024-02-23T04:43:29;1.95;;;0.77;;
72493;SDS011;60520;49.182;-0.348;2024-02-23T04:45:56;3.35;;;0.85;;
72493;SDS011;60520;49.182;-0.348;2024-02-23T04:48:23;2.17;;;0.75;;
72493;SDS011;60520;49.182;-0.348;2024-02-23T04:50:50;2.28;;;0.75;;
72493;SDS011;60520;49.182;-0.348;2024-02-23T04:53:19;2.10;;;0.80;;
72493;SDS011;60520;49.182;-0.348;2024-02-23T04:55:46;1.60;;;0.73;;
72493;SDS011;60520;49.182;-0.348;2024-02-23T04:58:13;2.22;;;0.75;;
72493;SDS011;60520;49.182;-0.348;2024-02-23T05:00:40;2.70;;;0.95;;
72493;SDS011;60520;49.182;-0.348;2024-02-23T05:03:07;2.63;;;0.82;;
72493;SDS011;60520;49.182;-0.348;2024-02-23T05:05:35;1.90;;;0.82;;
72493;SDS011;60520;49.182;-0.348;2024-02-23T05:08:02;2.20;;;0.80;;
72493;SDS011;60520;49.182;-0.348;2024-02-23T05:10:30;3.60;;;0.90;;
72493;SDS011;60520;49.182;-0.348;2024-02-23T05:12:58;1.63;;;0.68;;
72493;SDS011;60520;49.182;-0.348;2024-02-23T05:15:25;3.08;;;0.80;;
72493;SDS011;60520;49.182;-0.348;2024-02-23T05:17:52;2.13;;;0.73;;
72493;SDS011;60520;49.182;-0.348;2024-02-23T05:20:19;1.80;;;0.88;;
72493;SDS011;60520;49.182;-0.348;2024-02-23T05:22:47;1.38;;;0.63;;
72493;SDS011;60520;49.182;-0.348;2024-02-23T05:25:14;1.90;;;0.68;;
72493;SDS011;60520;49.182;-0.348;2024-02-23T05:27:42;1.67;;;0.70;;
72493;SDS011;60520;49.182;-0.348;2024-02-23T05:30:10;1.33;;;0.63;;
72493;SDS011;60520;49.182;-0.348;2024-02-23T05:32:37;3.00;;;0.73;;
72493;SDS011;60520;49.182;-0.348;2024-02-23T05:35:05;3.10;;;0.95;;
72493;SDS011;60520;49.182;-0.348;2024-02-23T05:37:32;2.50;;;0.70;;
72493;SDS011;60520;49.182;-0.348;2024-02-23T05:39:59;4.22;;;0.90;;
72493;SDS011;60520;49.182;-0.348;2024-02-23T05:42:29;3.03;;;0.80;;
72493;SDS011;60520;49.182;-0.348;2024-02-23T05:44:57;1.80;;;0.82;;
72493;SDS011;60520;49.182;-0.348;2024-02-23T05:47:24;3.05;;;0.77;;
72493;SDS011;60520;49.182;-0.348;2024-02-23T05:49:52;1.23;;;0.50;;
72493;SDS011;60520;49.182;-0.348;2024-02-23T05:52:19;1.30;;;0.68;;
72493;SDS011;60520;49.182;-0.348;2024-02-23T05:54:46;2.38;;;0.77;;
72493;SDS011;60520;49.182;-0.348;2024-02-23T05:57:13;3.20;;;0.73;;
72493;SDS011;60520;49.182;-0.348;2024-02-23T05:59:40;2.90;;;0.88;;
72493;SDS011;60520;49.182;-0.348;2024-02-23T06:02:09;2.53;;;0.73;;
72493;SDS011;60520;49.182;-0.348;2024-02-23T06:04:36;2.45;;;0.85;;
72493;SDS011;60520;49.182;-0.348;2024-02-23T06:07:03;2.15;;;0.70;;
72493;SDS011;60520;49.182;-0.348;2024-02-23T06:09:30;2.80;;;0.52;;
72493;SDS011;60520;49.182;-0.348;2024-02-23T06:11:57;2.08;;;0.73;;
72493;SDS011;60520;49.182;-0.348;2024-02-23T06:14:24;2.63;;;0.60;;
72493;SDS011;60520;49.182;-0.348;2024-02-23T06:16:51;2.08;;;0.77;;
72493;SDS011;60520;49.182;-0.348;2024-02-23T06:19:20;1.90;;;0.50;;
72493;SDS011;60520;49.182;-0.348;2024-02-23T06:21:47;1.75;;;0.73;;
72493;SDS011;60520;49.182;-0.348;2024-02-23T06:24:15;2.88;;;0.80;;
72493;SDS011;60520;49.182;-0.348;2024-02-23T06:26:42;1.70;;;0.70;;
72493;SDS011;60520;49.182;-0.348;2024-02-23T06:29:10;1.85;;;0.60;;
72493;SDS011;60520;49.182;-0.348;2024-02-23T06:31:39;2.28;;;0.70;;
72493;SDS011;60520;49.182;-0.348;2024-02-23T06:34:06;3.38;;;0.70;;
72493;SDS011;60520;49.182;-0.348;2024-02-23T06:36:35;1.85;;;0.60;;
72493;SDS011;60520;49.182;-0.348;2024-02-23T06:39:02;2.67;;;0.85;;
72493;SDS011;60520;49.182;-0.348;2024-02-23T06:41:29;1.60;;;0.63;;
72493;SDS011;60520;49.182;-0.348;2024-02-23T06:43:57;2.00;;;0.68;;
72493;SDS011;60520;49.182;-0.348;2024-02-23T06:46:24;1.88;;;0.70;;
72493;SDS011;60520;49.182;-0.348;2024-02-23T06:48:51;1.90;;;0.60;;
72493;SDS011;60520;49.182;-0.348;2024-02-23T06:51:18;2.42;;;0.52;;
72493;SDS011;60520;49.182;-0.348;2024-02-23T06:53:47;2.90;;;0.75;;
72493;SDS011;60520;49.182;-0.348;2024-02-23T06:56:15;2.92;;;0.77;;
72493;SDS011;60520;49.182;-0.348;2024-02-23T06:58:42;1.65;;;0.63;;
72493;SDS011;60520;49.182;-0.348;2024-02-23T07:01:09;1.50;;;0.52;;
72493;SDS011;60520;49.182;-0.348;2024-02-23T07:03:37;1.67;;;0.55;;
72493;SDS011;60520;49.182;-0.348;2024-02-23T07:06:05;1.50;;;0.63;;
72493;SDS011;60520;49.182;-0.348;2024-02-23T07:08:34;1.63;;;0.70;;
72493;SDS011;60520;49.182;-0.348;2024-02-23T07:11:03;2.00;;;0.68;;
72493;SDS011;60520;49.182;-0.348;2024-02-23T07:13:31;1.70;;;0.43;;
72493;SDS011;60520;49.182;-0.348;2024-02-23T07:15:59;2.47;;;0.60;;
72493;SDS011;60520;49.182;-0.348;2024-02-23T07:18:27;1.45;;;0.40;;
72493;SDS011;60520;49.182;-0.348;2024-02-23T07:20:54;1.67;;;0.60;;
72493;SDS011;60520;49.182;-0.348;2024-02-23T07:23:21;1.40;;;0.60;;
72493;SDS011;60520;49.182;-0.348;2024-02-23T07:25:48;1.35;;;0.52;;
72493;SDS011;60520;49.182;-0.348;2024-02-23T07:28:17;2.30;;;0.73;;
72493;SDS011;60520;49.182;-0.348;2024-02-23T07:30:45;2.25;;;0.68;;
72493;SDS011;60520;49.182;-0.348;2024-02-23T07:33:12;1.42;;;0.43;;
72493;SDS011;60520;49.182;-0.348;2024-02-23T07:35:39;1.00;;;0.40;;
72493;SDS011;60520;49.182;-0.348;2024-02-23T07:38:07;1.60;;;0.73;;
72493;SDS011;60520;49.182;-0.348;2024-02-23T07:40:35;0.70;;;0.32;;
72493;SDS011;60520;49.182;-0.348;2024-02-23T07:43:02;1.77;;;0.63;;
72493;SDS011;60520;49.182;-0.348;2024-02-23T07:45:31;1.42;;;0.60;;
72493;SDS011;60520;49.182;-0.348;2024-02-23T07:47:59;1.50;;;0.40;;
72493;SDS011;60520;49.182;-0.348;2024-02-23T07:50:26;1.35;;;0.60;;
72493;SDS011;60520;49.182;-0.348;2024-02-23T07:52:53;2.15;;;0.77;;
72493;SDS011;60520;49.182;-0.348;2024-02-23T07:55:20;1.48;;;0.68;;
72493;SDS011;60520;49.182;-0.348;2024-02-23T07:57:48;1.00;;;0.40;;
72493;SDS011;60520;49.182;-0.348;2024-02-23T08:00:15;0.90;;;0.45;;
72493;SDS011;60520;49.182;-0.348;2024-02-23T08:02:44;1.15;;;0.43;;
72493;SDS011;60520;49.182;-0.348;2024-02-23T08:05:11;1.70;;;0.45;;
72493;SDS011;60520;49.182;-0.348;2024-02-23T08:07:38;1.50;;;0.50;;
72493;SDS011;60520;49.182;-0.348;2024-02-23T08:10:05;2.85;;;0.70;;
72493;SDS011;60520;49.182;-0.348;2024-02-23T08:12:34;1.30;;;0.50;;
72493;SDS011;60520;49.182;-0.348;2024-02-23T08:15:01;1.10;;;0.50;;
72493;SDS011;60520;49.182;-0.348;2024-02-23T08:17:28;2.13;;;0.60;;
72493;SDS011;60520;49.182;-0.348;2024-02-23T08:19:57;2.67;;;0.60;;
72493;SDS011;60520;49.182;-0.348;2024-02-23T08:22:24;1.58;;;0.40;;
72493;SDS011;60520;49.182;-0.348;2024-02-23T08:24:51;1.25;;;0.50;;
72493;SDS011;60520;49.182;-0.348;2024-02-23T08:27:18;1.55;;;0.50;;
72493;SDS011;60520;49.182;-0.348;2024-02-23T08:29:45;1.05;;;0.47;;
72493;SDS011;60520;49.182;-0.348;2024-02-23T08:32:12;2.03;;;0.60;;
72493;SDS011;60520;49.182;-0.348;2024-02-23T08:34:40;1.13;;;0.30;;
72493;SDS011;60520;49.182;-0.348;2024-02-23T08:37:08;1.98;;;0.47;;
72493;SDS011;60520;49.182;-0.348;2024-02-23T08:39:35;1.60;;;0.50;;
72493;SDS011;60520;49.182;-0.348;2024-02-23T08:42:03;1.23;;;0.43;;
72493;SDS011;60520;49.182;-0.348;2024-02-23T08:44:30;1.30;;;0.40;;
72493;SDS011;60520;49.182;-0.348;2024-02-23T08:46:57;1.33;;;0.50;;
72493;SDS011;60520;49.182;-0.348;2024-02-23T08:49:24;1.10;;;0.50;;
72493;SDS011;60520;49.182;-0.348;2024-02-23T08:51:51;1.13;;;0.40;;
72493;SDS011;60520;49.182;-0.348;2024-02-23T08:54:20;0.93;;;0.40;;
72493;SDS011;60520;49.182;-0.348;2024-02-23T08:56:47;1.65;;;0.68;;
72493;SDS011;60520;49.182;-0.348;2024-02-23T08:59:14;1.73;;;0.60;;
72493;SDS011;60520;49.182;-0.348;2024-02-23T09:01:41;0.95;;;0.30;;
72493;SDS011;60520;49.182;-0.348;2024-02-23T09:04:09;1.70;;;0.40;;
72493;SDS011;60520;49.182;-0.348;2024-02-23T09:06:36;0.90;;;0.40;;
72493;SDS011;60520;49.182;-0.348;2024-02-23T09:09:03;0.82;;;0.40;;
72493;SDS011;60520;49.182;-0.348;2024-02-23T09:11:32;1.00;;;0.40;;
72493;SDS011;60520;49.182;-0.348;2024-02-23T09:13:59;1.30;;;0.30;;
72493;SDS011;60520;49.182;-0.348;2024-02-23T09:16:26;2.22;;;0.40;;
72493;SDS011;60520;49.182;-0.348;2024-02-23T09:18:53;1.75;;;0.55;;
72493;SDS011;60520;49.182;-0.348;2024-02-23T09:21:20;1.48;;;0.40;;
72493;SDS011;60520;49.182;-0.348;2024-02-23T09:23:48;0.47;;;0.20;;
72493;SDS011;60520;49.182;-0.348;2024-02-23T09:26:15;0.80;;;0.40;;
72493;SDS011;60520;49.182;-0.348;2024-02-23T09:28:44;1.30;;;0.40;;
72493;SDS011;60520;49.182;-0.348;2024-02-23T09:31:11;1.02;;;0.65;;
72493;SDS011;60520;49.182;-0.348;2024-02-23T09:33:38;3.30;;;0.30;;
72493;SDS011;60520;49.182;-0.348;2024-02-23T09:36:06;0.63;;;0.30;;
72493;SDS011;60520;49.182;-0.348;2024-02-23T09:38:34;1.40;;;0.20;;
72493;SDS011;60520;49.182;-0.348;2024-02-23T09:41:02;3.28;;;0.30;;
72493;SDS011;60520;49.182;-0.348;2024-02-23T09:43:30;0.70;;;0.40;;
72493;SDS011;60520;49.182;-0.348;2024-02-23T09:45:58;2.05;;;0.30;;
72493;SDS011;60520;49.182;-0.348;2024-02-23T09:48:26;1.55;;;0.32;;
72493;SDS011;60520;49.182;-0.348;2024-02-23T09:50:53;1.08;;;0.43;;
72493;SDS011;60520;49.182;-0.348;2024-02-23T09:53:21;1.20;;;0.47;;
72493;SDS011;60520;49.182;-0.348;2024-02-23T09:55:49;0.82;;;0.38;;
72493;SDS011;60520;49.182;-0.348;2024-02-23T09:58:17;1.15;;;0.60;;
72493;SDS011;60520;49.182;-0.348;2024-02-23T10:00:44;4.13;;;0.95;;
72493;SDS011;60520;49.182;-0.348;2024-02-23T10:03:13;3.72;;;0.73;;
72493;SDS011;60520;49.182;-0.348;2024-02-23T10:05:40;5.75;;;0.95;;
72493;SDS011;60520;49.182;-0.348;2024-02-23T10:08:09;1.88;;;0.98;;
72493;SDS011;60520;49.182;-0.348;2024-02-23T10:10:37;4.10;;;1.10;;
72493;SDS011;60520;49.182;-0.348;2024-02-23T10:13:04;9.63;;;1.30;;
72493;SDS011;60520;49.182;-0.348;2024-02-23T10:15:33;5.68;;;1.50;;
72493;SDS011;60520;49.182;-0.348;2024-02-23T10:18:00;7.65;;;1.60;;
72493;SDS011;60520;49.182;-0.348;2024-02-23T10:20:29;8.45;;;2.00;;
72493;SDS011;60520;49.182;-0.348;2024-02-23T10:22:56;2.72;;;1.50;;
72493;SDS011;60520;49.182;-0.348;2024-02-23T10:25:25;6.28;;;1.73;;
72493;SDS011;60520;49.182;-0.348;2024-02-23T10:27:52;4.85;;;1.98;;
72493;SDS011;60520;49.182;-0.348;2024-02-23T10:30:20;4.50;;;1.90;;
72493;SDS011;60520;49.182;-0.348;2024-02-23T10:32:47;4.28;;;1.90;;
72493;SDS011;60520;49.182;-0.348;2024-02-23T10:35:15;5.00;;;1.70;;
72493;SDS011;60520;49.182;-0.348;2024-02-23T10:37:43;5.05;;;1.40;;
72493;SDS011;60520;49.182;-0.348;2024-02-23T10:40:12;5.25;;;2.05;;
72493;SDS011;60520;49.182;-0.348;2024-02-23T10:42:39;3.40;;;1.75;;
72493;SDS011;60520;49.182;-0.348;2024-02-23T10:45:09;4.03;;;2.10;;
72493;SDS011;60520;49.182;-0.348;2024-02-23T10:47:36;3.47;;;2.00;;
72493;SDS011;60520;49.182;-0.348;2024-02-23T10:50:05;3.50;;;1.90;;
72493;SDS011;60520;49.182;-0.348;2024-02-23T10:52:33;5.35;;;1.88;;
72493;SDS011;60520;49.182;-0.348;2024-02-23T10:55:03;6.40;;;1.85;;
72493;SDS011;60520;49.182;-0.348;2024-02-23T10:57:31;5.93;;;2.30;;
72493;SDS011;60520;49.182;-0.348;2024-02-23T10:59:58;6.22;;;2.20;;
72493;SDS011;60520;49.182;-0.348;2024-02-23T11:02:26;5.35;;;2.38;;
72493;SDS011;60520;49.182;-0.348;2024-02-23T11:04:54;7.30;;;2.13;;
72493;SDS011;60520;49.182;-0.348;2024-02-23T11:07:22;3.67;;;2.25;;
72493;SDS011;60520;49.182;-0.348;2024-02-23T11:09:51;7.10;;;2.50;;
72493;SDS011;60520;49.182;-0.348;2024-02-23T11:12:26;4.55;;;2.85;;
72493;SDS011;60520;49.182;-0.348;2024-02-23T11:14:58;3.92;;;2.58;;
72493;SDS011;60520;49.182;-0.348;2024-02-23T11:17:26;6.72;;;2.70;;
72493;SDS011;60520;49.182;-0.348;2024-02-23T11:19:54;4.22;;;2.85;;
72493;SDS011;60520;49.182;-0.348;2024-02-23T11:22:24;4.43;;;2.78;;
72493;SDS011;60520;49.182;-0.348;2024-02-23T11:24:52;5.00;;;3.03;;
72493;SDS011;60520;49.182;-0.348;2024-02-23T11:27:20;4.55;;;2.88;;
72493;SDS011;60520;49.182;-0.348;2024-02-23T11:29:52;4.63;;;3.00;;
72493;SDS011;60520;49.182;-0.348;2024-02-23T11:32:34;6.85;;;3.22;;
72493;SDS011;60520;49.182;-0.348;2024-02-23T11:35:01;9.73;;;3.72;;
72493;SDS011;60520;49.182;-0.348;2024-02-23T11:37:30;4.35;;;2.95;;
72493;SDS011;60520;49.182;-0.348;2024-02-23T11:39:58;4.45;;;3.08;;
72493;SDS011;60520;49.182;-0.348;2024-02-23T11:42:25;5.30;;;3.40;;
72493;SDS011;60520;49.182;-0.348;2024-02-23T11:44:55;6.00;;;3.55;;
72493;SDS011;60520;49.182;-0.348;2024-02-23T11:47:23;6.55;;;3.30;;
72493;SDS011;60520;49.182;-0.348;2024-02-23T11:49:50;5.05;;;3.35;;
72493;SDS011;60520;49.182;-0.348;2024-02-23T11:52:18;6.30;;;3.45;;
72493;SDS011;60520;49.182;-0.348;2024-02-23T11:54:45;6.38;;;3.60;;
72493;SDS011;60520;49.182;-0.348;2024-02-23T11:57:13;5.47;;;3.75;;
72493;SDS011;60520;49.182;-0.348;2024-02-23T11:59:40;5.95;;;4.00;;
72493;SDS011;60520;49.182;-0.348;2024-02-23T12:02:09;6.78;;;3.80;;
72493;SDS011;60520;49.182;-0.348;2024-02-23T12:04:36;10.15;;;3.92;;
72493;SDS011;60520;49.182;-0.348;2024-02-23T12:07:03;9.00;;;4.05;;
72493;SDS011;60520;49.182;-0.348;2024-02-23T12:09:30;4.57;;;3.35;;
72493;SDS011;60520;49.182;-0.348;2024-02-23T12:11:57;4.22;;;3.38;;
72493;SDS011;60520;49.182;-0.348;2024-02-23T12:14:24;5.53;;;4.10;;
72493;SDS011;60520;49.182;-0.348;2024-02-23T12:16:52;5.13;;;3.65;;
72493;SDS011;60520;49.182;-0.348;2024-02-23T12:19:20;7.07;;;4.20;;
72493;SDS011;60520;49.182;-0.348;2024-02-23T12:21:49;13.52;;;4.05;;
72493;SDS011;60520;49.182;-0.348;2024-02-23T12:24:16;27.83;;;4.70;;
72493;SDS011;60520;49.182;-0.348;2024-02-23T12:26:44;20.48;;;4.95;;
72493;SDS011;60520;49.182;-0.348;2024-02-23T12:29:11;20.35;;;5.47;;
72493;SDS011;60520;49.182;-0.348;2024-02-23T12:31:38;15.18;;;5.65;;
72493;SDS011;60520;49.182;-0.348;2024-02-23T12:34:06;26.20;;;5.97;;
72493;SDS011;60520;49.182;-0.348;2024-02-23T12:36:36;30.95;;;6.45;;
72493;SDS011;60520;49.182;-0.348;2024-02-23T12:39:03;25.40;;;7.10;;
72493;SDS011;60520;49.182;-0.348;2024-02-23T12:41:30;23.73;;;6.55;;
72493;SDS011;60520;49.182;-0.348;2024-02-23T12:43:57;22.60;;;7.07;;
72493;SDS011;60520;49.182;-0.348;2024-02-23T12:46:24;19.42;;;6.53;;
72493;SDS011;60520;49.182;-0.348;2024-02-23T12:48:52;35.97;;;7.00;;
72493;SDS011;60520;49.182;-0.348;2024-02-23T12:51:19;22.33;;;5.18;;
72493;SDS011;60520;49.182;-0.348;2024-02-23T12:53:47;11.85;;;4.68;;
72493;SDS011;60520;49.182;-0.348;2024-02-23T12:56:14;11.98;;;4.50;;
72493;SDS011;60520;49.182;-0.348;2024-02-23T12:58:43;11.88;;;4.53;;
72493;SDS011;60520;49.182;-0.348;2024-02-23T13:01:11;64.93;;;7.20;;
72493;SDS011;60520;49.182;-0.348;2024-02-23T13:03:38;38.53;;;4.90;;
72493;SDS011;60520;49.182;-0.348;2024-02-23T13:06:06;19.02;;;4.65;;
72493;SDS011;60520;49.182;-0.348;2024-02-23T13:08:34;18.80;;;3.90;;
72493;SDS011;60520;49.182;-0.348;2024-02-23T13:11:02;16.23;;;4.47;;
72493;SDS011;60520;49.182;-0.348;2024-02-23T13:13:29;13.52;;;4.32;;
72493;SDS011;60520;49.182;-0.348;2024-02-23T13:15:57;11.50;;;4.03;;
72493;SDS011;60520;49.182;-0.348;2024-02-23T13:18:24;6.85;;;4.07;;
72493;SDS011;60520;49.182;-0.348;2024-02-23T13:20:51;11.05;;;4.05;;
72493;SDS011;60520;49.182;-0.348;2024-02-23T13:23:18;16.50;;;3.97;;
72493;SDS011;60520;49.182;-0.348;2024-02-23T13:25:45;13.77;;;4.18;;
72493;SDS011;60520;49.182;-0.348;2024-02-23T13:28:13;7.07;;;4.47;;
72493;SDS011;60520;49.182;-0.348;2024-02-23T13:30:40;8.02;;;4.93;;
72493;SDS011;60520;49.182;-0.348;2024-02-23T13:33:07;14.15;;;5.43;;
72493;SDS011;60520;49.182;-0.348;2024-02-23T13:35:36;21.90;;;6.60;;
72493;SDS011;60520;49.182;-0.348;2024-02-23T13:38:04;19.08;;;6.97;;
72493;SDS011;60520;49.182;-0.348;2024-02-23T13:40:32;18.33;;;6.47;;
72493;SDS011;60520;49.182;-0.348;2024-02-23T13:42:59;26.40;;;6.53;;
72493;SDS011;60520;49.182;-0.348;2024-02-23T13:45:27;18.85;;;6.40;;
72493;SDS011;60520;49.182;-0.348;2024-02-23T13:47:55;11.50;;;6.47;;
72493;SDS011;60520;49.182;-0.348;2024-02-23T13:50:23;16.90;;;6.38;;
72493;SDS011;60520;49.182;-0.348;2024-02-23T13:52:50;16.15;;;6.50;;
72493;SDS011;60520;49.182;-0.348;2024-02-23T13:55:18;23.27;;;6.07;;
72493;SDS011;60520;49.182;-0.348;2024-02-23T13:57:46;13.70;;;5.90;;
72493;SDS011;60520;49.182;-0.348;2024-02-23T14:00:15;13.82;;;6.13;;
72493;SDS011;60520;49.182;-0.348;2024-02-23T14:02:43;10.40;;;4.90;;
72493;SDS011;60520;49.182;-0.348;2024-02-23T14:05:11;16.20;;;5.53;;
72493;SDS011;60520;49.182;-0.348;2024-02-23T14:07:38;11.13;;;5.88;;
72493;SDS011;60520;49.182;-0.348;2024-02-23T14:10:06;13.77;;;6.22;;
72493;SDS011;60520;49.182;-0.348;2024-02-23T14:12:33;13.82;;;6.80;;
72493;SDS011;60520;49.182;-0.348;2024-02-23T14:15:02;9.63;;;6.45;;
72493;SDS011;60520;49.182;-0.348;2024-02-23T14:17:30;10.43;;;6.25;;
72493;SDS011;60520;49.182;-0.348;2024-02-23T14:19:58;10.15;;;6.32;;
72493;SDS011;60520;49.182;-0.348;2024-02-23T14:22:25;12.77;;;7.45;;
72493;SDS011;60520;49.182;-0.348;2024-02-23T14:24:53;11.23;;;6.88;;
72493;SDS011;60520;49.182;-0.348;2024-02-23T14:27:20;12.00;;;6.50;;
72493;SDS011;60520;49.182;-0.348;2024-02-23T14:29:48;13.20;;;6.40;;
72493;SDS011;60520;49.182;-0.348;2024-02-23T14:32:16;10.57;;;6.30;;
72493;SDS011;60520;49.182;-0.348;2024-02-23T14:34:43;15.13;;;8.25;;